Decoded Metar for CYHM (HAMILTON in ON, CANADA) (IATA:YHM) | Meteo·Mobile Aviation Weather
aviador You're here:

CYHM Decoded Metar

HAMILTON in ON, CANADA
Report Time2018-11-19 02:00:00
UTC Time2018-11-19 02:38:25
Flight Rules mvfr MVFR
Wind240° at 04 kt
W.Decomp.*RWY 24: 3.9 kt HW 0.7 kt RCW
RWY 30: 2.6 kt HW 3.1 kt LCW
W.Rank240° ranks 1
Current wind is below 240° avg. (9.7)
Visibility9999 m
Phenomena:Light Snow
Clouds:Few 007 Hf
Overcast 027 Hf
Ceiling2,700 ft
Temp00°C (ISA -13)
Dew Point00°C (100% RH)
AAT-3.4°C
QNH1020 hPa
Density Alt-1,010 ft
Elevation781 ft
Report Wrong Elevation
Raw Report
CYHM 190200Z 24004KT 12SM -SN FEW007 OVC027 M00/M00 A3012 RMK
CF1SC8 CF TR SLP211=

Extra information for CYHM:More info

Metar Taf Metar & Taf Last 4 Metars F.Rules Stats Wind Profile Meteogram Temp Stats Airport Information Weather charts Add Link Nearby VenuesMetar ALERT Operation Metar Decoded Social comments